sensor_id;sensor_type;location;lat;lon;timestamp;pressure;altitude;pressure_sealevel;temperature;humidity
57086;BME280;42964;42.910;23.792;2023-08-21T00:00:52;97971.28;;;20.00;72.28
57086;BME280;42964;42.910;23.792;2023-08-21T00:05:51;97963.50;;;19.97;72.04
57086;BME280;42964;42.910;23.792;2023-08-21T00:10:50;97974.16;;;19.94;72.71
57086;BME280;42964;42.910;23.792;2023-08-21T00:15:49;97975.50;;;19.80;73.06
57086;BME280;42964;42.910;23.792;2023-08-21T00:20:48;97981.34;;;19.63;73.33
57086;BME280;42964;42.910;23.792;2023-08-21T00:25:47;97936.53;;;19.12;74.98
57086;BME280;42964;42.910;23.792;2023-08-21T00:30:46;97990.59;;;19.20;75.99
57086;BME280;42964;42.910;23.792;2023-08-21T00:35:48;97985.59;;;19.13;76.29
57086;BME280;42964;42.910;23.792;2023-08-21T00:40:47;97983.13;;;19.08;76.55
57086;BME280;42964;42.910;23.792;2023-08-21T00:45:48;97987.56;;;19.06;76.66
57086;BME280;42964;42.910;23.792;2023-08-21T00:50:48;97991.25;;;19.00;77.04
57086;BME280;42964;42.910;23.792;2023-08-21T00:55:48;97977.31;;;18.97;76.97
57086;BME280;42964;42.910;23.792;2023-08-21T01:00:48;97958.34;;;18.87;77.15
57086;BME280;42964;42.910;23.792;2023-08-21T01:05:48;97975.63;;;18.96;77.26
57086;BME280;42964;42.910;23.792;2023-08-21T01:10:57;97958.56;;;18.81;77.46
57086;BME280;42964;42.910;23.792;2023-08-21T01:15:58;97973.84;;;18.96;77.57
57086;BME280;42964;42.910;23.792;2023-08-21T01:20:57;97969.91;;;18.83;78.40
57086;BME280;42964;42.910;23.792;2023-08-21T01:25:57;97962.78;;;18.85;78.23
57086;BME280;42964;42.910;23.792;2023-08-21T01:35:59;97921.66;;;18.54;78.75
57086;BME280;42964;42.910;23.792;2023-08-21T01:41:02;97971.78;;;18.78;78.66
57086;BME280;42964;42.910;23.792;2023-08-21T01:46:02;97979.72;;;18.76;78.67
57086;BME280;42964;42.910;23.792;2023-08-21T01:51:02;97977.25;;;18.72;78.92
57086;BME280;42964;42.910;23.792;2023-08-21T01:56:01;97964.38;;;18.61;78.70
57086;BME280;42964;42.910;23.792;2023-08-21T02:01:00;97967.34;;;18.50;79.62
57086;BME280;42964;42.910;23.792;2023-08-21T02:05:59;97967.50;;;18.44;79.95
57086;BME280;42964;42.910;23.792;2023-08-21T02:10:58;97969.41;;;18.39;80.08
57086;BME280;42964;42.910;23.792;2023-08-21T02:15:57;97938.59;;;18.14;80.13
57086;BME280;42964;42.910;23.792;2023-08-21T02:20:56;97970.16;;;18.13;81.33
57086;BME280;42964;42.910;23.792;2023-08-21T02:25:55;97961.59;;;18.06;81.35
57086;BME280;42964;42.910;23.792;2023-08-21T02:30:55;97966.84;;;18.06;81.85
57086;BME280;42964;42.910;23.792;2023-08-21T02:35:53;97964.63;;;17.91;82.35
57086;BME280;42964;42.910;23.792;2023-08-21T02:40:52;97942.38;;;17.71;82.56
57086;BME280;42964;42.910;23.792;2023-08-21T02:45:51;97926.19;;;17.54;82.70
57086;BME280;42964;42.910;23.792;2023-08-21T02:50:50;97958.72;;;17.83;82.05
57086;BME280;42964;42.910;23.792;2023-08-21T02:55:49;97946.59;;;17.79;81.73
57086;BME280;42964;42.910;23.792;2023-08-21T03:00:48;97963.75;;;17.92;82.01
57086;BME280;42964;42.910;23.792;2023-08-21T03:05:47;97953.00;;;17.67;82.02
57086;BME280;42964;42.910;23.792;2023-08-21T03:10:46;97957.19;;;17.72;82.33
57086;BME280;42964;42.910;23.792;2023-08-21T03:15:45;97973.97;;;17.68;82.76
57086;BME280;42964;42.910;23.792;2023-08-21T03:20:47;97968.81;;;17.64;82.60
57086;BME280;42964;42.910;23.792;2023-08-21T03:25:46;97979.34;;;17.62;82.80
57086;BME280;42964;42.910;23.792;2023-08-21T03:30:45;97976.63;;;17.65;82.68
57086;BME280;42964;42.910;23.792;2023-08-21T03:35:44;97977.44;;;17.69;82.48
57086;BME280;42964;42.910;23.792;2023-08-21T03:40:43;97979.22;;;17.68;82.25
57086;BME280;42964;42.910;23.792;2023-08-21T03:45:42;97972.19;;;17.69;82.46
57086;BME280;42964;42.910;23.792;2023-08-21T03:50:41;97898.09;;;17.25;82.37
57086;BME280;42964;42.910;23.792;2023-08-21T03:55:40;97927.56;;;17.34;82.61
57086;BME280;42964;42.910;23.792;2023-08-21T04:00:39;97941.53;;;17.37;82.72
57086;BME280;42964;42.910;23.792;2023-08-21T04:05:38;97995.63;;;17.75;82.02
57086;BME280;42964;42.910;23.792;2023-08-21T04:10:37;98000.06;;;17.73;82.05
57086;BME280;42964;42.910;23.792;2023-08-21T04:15:37;97963.81;;;17.54;82.10
57086;BME280;42964;42.910;23.792;2023-08-21T04:20:37;97926.44;;;17.45;81.72
57086;BME280;42964;42.910;23.792;2023-08-21T04:25:36;97977.16;;;17.80;81.17
57086;BME280;42964;42.910;23.792;2023-08-21T04:30:35;97972.00;;;17.75;81.33
57086;BME280;42964;42.910;23.792;2023-08-21T04:35:38;98008.19;;;17.98;81.59
57086;BME280;42964;42.910;23.792;2023-08-21T04:40:37;98015.72;;;18.10;81.49
57086;BME280;42964;42.910;23.792;2023-08-21T04:45:36;97991.47;;;18.02;81.04
57086;BME280;42964;42.910;23.792;2023-08-21T04:50:36;98020.81;;;18.16;81.24
57086;BME280;42964;42.910;23.792;2023-08-21T04:55:35;98021.78;;;18.14;80.94
57086;BME280;42964;42.910;23.792;2023-08-21T05:00:35;98029.56;;;18.17;81.17
57086;BME280;42964;42.910;23.792;2023-08-21T05:05:35;98037.44;;;18.17;81.34
57086;BME280;42964;42.910;23.792;2023-08-21T05:10:34;97986.19;;;18.02;81.34
57086;BME280;42964;42.910;23.792;2023-08-21T05:15:33;98010.06;;;18.26;81.19
57086;BME280;42964;42.910;23.792;2023-08-21T05:20:32;97889.59;;;17.82;80.31
57086;BME280;42964;42.910;23.792;2023-08-21T05:25:32;98027.53;;;18.89;79.71
57086;BME280;42964;42.910;23.792;2023-08-21T05:30:31;98017.44;;;19.03;78.32
57086;BME280;42964;42.910;23.792;2023-08-21T05:35:34;97985.81;;;19.07;77.82
57086;BME280;42964;42.910;23.792;2023-08-21T05:40:34;98026.63;;;19.47;77.08
57086;BME280;42964;42.910;23.792;2023-08-21T05:45:33;97971.03;;;19.29;76.78
57086;BME280;42964;42.910;23.792;2023-08-21T05:50:32;98026.84;;;19.94;75.67
57086;BME280;42964;42.910;23.792;2023-08-21T05:55:32;98018.38;;;20.09;74.95
57086;BME280;42964;42.910;23.792;2023-08-21T06:00:33;98024.50;;;20.35;74.17
57086;BME280;42964;42.910;23.792;2023-08-21T06:05:32;98007.38;;;20.71;72.84
57086;BME280;42964;42.910;23.792;2023-08-21T06:10:31;98005.63;;;20.94;71.14
57086;BME280;42964;42.910;23.792;2023-08-21T06:15:30;98001.34;;;21.13;70.86
57086;BME280;42964;42.910;23.792;2023-08-21T06:20:29;98009.91;;;21.42;69.74
57086;BME280;42964;42.910;23.792;2023-08-21T06:25:28;98024.75;;;21.67;68.42
57086;BME280;42964;42.910;23.792;2023-08-21T06:30:29;98035.88;;;21.95;67.33
57086;BME280;42964;42.910;23.792;2023-08-21T06:35:28;98035.09;;;22.14;65.84
57086;BME280;42964;42.910;23.792;2023-08-21T06:40:27;98038.31;;;22.41;63.94
57086;BME280;42964;42.910;23.792;2023-08-21T06:45:26;98038.22;;;22.63;63.21
57086;BME280;42964;42.910;23.792;2023-08-21T06:50:29;98044.63;;;22.97;59.38
57086;BME280;42964;42.910;23.792;2023-08-21T06:55:28;98028.72;;;23.16;60.17
57086;BME280;42964;42.910;23.792;2023-08-21T07:00:27;98028.63;;;23.55;59.53
57086;BME280;42964;42.910;23.792;2023-08-21T07:05:25;98018.53;;;23.81;57.52
57086;BME280;42964;42.910;23.792;2023-08-21T07:10:25;97942.59;;;23.45;57.12
57086;BME280;42964;42.910;23.792;2023-08-21T07:15:24;98014.16;;;24.15;55.66
57086;BME280;42964;42.910;23.792;2023-08-21T07:20:23;98005.34;;;24.32;55.22
57086;BME280;42964;42.910;23.792;2023-08-21T07:25:22;97991.44;;;24.44;54.67
57086;BME280;42964;42.910;23.792;2023-08-21T07:30:21;98015.47;;;24.74;53.49
57086;BME280;42964;42.910;23.792;2023-08-21T07:35:21;98007.72;;;25.03;52.75
57086;BME280;42964;42.910;23.792;2023-08-21T07:40:20;98008.66;;;25.18;51.92
57086;BME280;42964;42.910;23.792;2023-08-21T07:45:19;97998.34;;;25.43;51.71
57086;BME280;42964;42.910;23.792;2023-08-21T07:50:18;97996.91;;;25.84;51.74
57086;BME280;42964;42.910;23.792;2023-08-21T07:55:17;97995.06;;;26.14;51.13
57086;BME280;42964;42.910;23.792;2023-08-21T08:00:16;97998.06;;;26.39;50.23
57086;BME280;42964;42.910;23.792;2023-08-21T08:05:15;97996.34;;;26.66;49.77
57086;BME280;42964;42.910;23.792;2023-08-21T08:10:14;97997.09;;;26.97;49.32
57086;BME280;42964;42.910;23.792;2023-08-21T08:15:13;97986.88;;;27.18;48.71
57086;BME280;42964;42.910;23.792;2023-08-21T08:20:12;97981.06;;;27.53;47.19
57086;BME280;42964;42.910;23.792;2023-08-21T08:25:11;97975.34;;;27.72;46.05
57086;BME280;42964;42.910;23.792;2023-08-21T08:30:10;97971.56;;;28.01;44.37
57086;BME280;42964;42.910;23.792;2023-08-21T08:35:09;97962.31;;;28.33;44.16
57086;BME280;42964;42.910;23.792;2023-08-21T08:40:10;97910.66;;;28.34;43.11
57086;BME280;42964;42.910;23.792;2023-08-21T08:45:12;97947.88;;;28.74;43.14
57086;BME280;42964;42.910;23.792;2023-08-21T08:50:12;97937.41;;;28.71;42.03
57086;BME280;42964;42.910;23.792;2023-08-21T08:55:12;97919.59;;;28.95;41.41
57086;BME280;42964;42.910;23.792;2023-08-21T09:00:11;97945.78;;;29.27;40.77
57086;BME280;42964;42.910;23.792;2023-08-21T09:05:10;97911.31;;;29.35;40.09
57086;BME280;42964;42.910;23.792;2023-08-21T09:10:14;97837.88;;;29.04;37.94
57086;BME280;42964;42.910;23.792;2023-08-21T09:15:16;97944.91;;;29.86;38.49
57086;BME280;42964;42.910;23.792;2023-08-21T09:20:15;97937.31;;;30.15;38.94
57086;BME280;42964;42.910;23.792;2023-08-21T09:25:14;97928.94;;;30.31;37.73
57086;BME280;42964;42.910;23.792;2023-08-21T09:30:13;97884.25;;;29.86;37.62
57086;BME280;42964;42.910;23.792;2023-08-21T09:35:14;97906.66;;;30.08;37.12
57086;BME280;42964;42.910;23.792;2023-08-21T09:40:15;97923.00;;;30.50;37.04
57086;BME280;42964;42.910;23.792;2023-08-21T09:45:14;97910.91;;;30.78;36.08
57086;BME280;42964;42.910;23.792;2023-08-21T09:50:18;97911.38;;;31.06;36.00
57086;BME280;42964;42.910;23.792;2023-08-21T09:55:18;97911.06;;;31.20;35.90
57086;BME280;42964;42.910;23.792;2023-08-21T10:00:17;97883.47;;;31.08;35.30
57086;BME280;42964;42.910;23.792;2023-08-21T10:05:19;97896.72;;;31.42;34.32
57086;BME280;42964;42.910;23.792;2023-08-21T10:10:18;97886.31;;;31.49;33.80
57086;BME280;42964;42.910;23.792;2023-08-21T10:15:18;97890.44;;;31.64;34.01
57086;BME280;42964;42.910;23.792;2023-08-21T10:20:21;97881.75;;;31.82;33.99
57086;BME280;42964;42.910;23.792;2023-08-21T10:25:24;97869.97;;;31.73;33.19
57086;BME280;42964;42.910;23.792;2023-08-21T10:30:26;97845.31;;;31.79;33.19
57086;BME280;42964;42.910;23.792;2023-08-21T10:35:30;97856.97;;;32.20;32.98
57086;BME280;42964;42.910;23.792;2023-08-21T10:40:29;97849.25;;;32.36;31.82
57086;BME280;42964;42.910;23.792;2023-08-21T10:45:29;97846.66;;;32.56;32.53
57086;BME280;42964;42.910;23.792;2023-08-21T10:50:29;97788.41;;;32.66;31.32
57086;BME280;42964;42.910;23.792;2023-08-21T10:55:28;97843.22;;;33.14;30.27
57086;BME280;42964;42.910;23.792;2023-08-21T11:00:27;97830.22;;;33.09;29.73
57086;BME280;42964;42.910;23.792;2023-08-21T11:05:28;97828.91;;;32.84;30.63
57086;BME280;42964;42.910;23.792;2023-08-21T11:10:30;97829.97;;;32.62;30.55
57086;BME280;42964;42.910;23.792;2023-08-21T11:15:29;97821.03;;;32.52;30.16
57086;BME280;42964;42.910;23.792;2023-08-21T11:20:33;97719.03;;;32.11;31.05
57086;BME280;42964;42.910;23.792;2023-08-21T11:25:33;97826.63;;;32.79;30.55
57086;BME280;42964;42.910;23.792;2023-08-21T11:30:32;97816.91;;;33.17;30.81
57086;BME280;42964;42.910;23.792;2023-08-21T11:35:34;97776.69;;;33.16;30.88
57086;BME280;42964;42.910;23.792;2023-08-21T11:40:36;97806.97;;;33.47;30.26
57086;BME280;42964;42.910;23.792;2023-08-21T11:45:35;97810.63;;;33.65;29.66
57086;BME280;42964;42.910;23.792;2023-08-21T11:50:34;97805.72;;;33.88;29.63
57086;BME280;42964;42.910;23.792;2023-08-21T11:55:34;97803.03;;;33.88;28.31
57086;BME280;42964;42.910;23.792;2023-08-21T12:00:33;97784.59;;;33.94;28.34
57086;BME280;42964;42.910;23.792;2023-08-21T12:05:32;97792.03;;;34.09;28.36
57086;BME280;42964;42.910;23.792;2023-08-21T12:10:32;97796.00;;;34.15;28.00
57086;BME280;42964;42.910;23.792;2023-08-21T12:15:31;97791.72;;;34.22;27.66
57086;BME280;42964;42.910;23.792;2023-08-21T12:20:29;97768.47;;;34.21;27.60
57086;BME280;42964;42.910;23.792;2023-08-21T12:25:28;97763.41;;;34.08;27.39
57086;BME280;42964;42.910;23.792;2023-08-21T12:30:29;97779.34;;;33.92;27.50
57086;BME280;42964;42.910;23.792;2023-08-21T12:35:28;97776.06;;;33.71;26.97
57086;BME280;42964;42.910;23.792;2023-08-21T12:40:27;97739.59;;;33.76;27.29
57086;BME280;42964;42.910;23.792;2023-08-21T12:45:26;97734.34;;;33.84;27.08
57086;BME280;42964;42.910;23.792;2023-08-21T12:50:24;97761.16;;;34.04;27.10
57086;BME280;42964;42.910;23.792;2023-08-21T12:55:24;97711.59;;;33.97;27.49
57086;BME280;42964;42.910;23.792;2023-08-21T13:00:23;97730.69;;;34.13;27.32
57086;BME280;42964;42.910;23.792;2023-08-21T13:05:22;97739.47;;;34.05;27.67
57086;BME280;42964;42.910;23.792;2023-08-21T13:10:21;97726.75;;;34.25;27.48
57086;BME280;42964;42.910;23.792;2023-08-21T13:15:20;97718.88;;;34.60;26.99
57086;BME280;42964;42.910;23.792;2023-08-21T13:20:19;97700.22;;;34.48;28.00
57086;BME280;42964;42.910;23.792;2023-08-21T13:25:19;97698.16;;;34.24;27.64
57086;BME280;42964;42.910;23.792;2023-08-21T13:30:19;97722.53;;;34.59;26.69
57086;BME280;42964;42.910;23.792;2023-08-21T13:35:19;97701.09;;;34.67;26.03
57086;BME280;42964;42.910;23.792;2023-08-21T13:40:19;97719.31;;;34.91;26.29
57086;BME280;42964;42.910;23.792;2023-08-21T13:45:19;97712.78;;;34.93;25.51
57086;BME280;42964;42.910;23.792;2023-08-21T13:50:18;97703.31;;;34.54;26.49
57086;BME280;42964;42.910;23.792;2023-08-21T13:55:18;97709.88;;;34.05;27.82
57086;BME280;42964;42.910;23.792;2023-08-21T14:00:17;97658.59;;;33.97;27.98
57086;BME280;42964;42.910;23.792;2023-08-21T14:05:16;97702.38;;;34.27;27.84
57086;BME280;42964;42.910;23.792;2023-08-21T14:10:16;97701.22;;;34.29;27.46
57086;BME280;42964;42.910;23.792;2023-08-21T14:15:15;97692.84;;;34.50;27.13
57086;BME280;42964;42.910;23.792;2023-08-21T14:20:14;97698.44;;;34.21;26.95
57086;BME280;42964;42.910;23.792;2023-08-21T14:25:13;97650.97;;;33.93;27.50
57086;BME280;42964;42.910;23.792;2023-08-21T14:30:14;97701.88;;;34.14;28.02
57086;BME280;42964;42.910;23.792;2023-08-21T14:35:13;97648.38;;;34.01;26.73
57086;BME280;42964;42.910;23.792;2023-08-21T14:40:12;97700.28;;;34.21;25.84
57086;BME280;42964;42.910;23.792;2023-08-21T14:45:11;97654.13;;;34.16;26.14
57086;BME280;42964;42.910;23.792;2023-08-21T14:50:10;97691.22;;;34.40;26.25
57086;BME280;42964;42.910;23.792;2023-08-21T14:55:09;97680.91;;;34.35;26.29
57086;BME280;42964;42.910;23.792;2023-08-21T15:00:09;97703.06;;;34.29;25.65
57086;BME280;42964;42.910;23.792;2023-08-21T15:05:08;97664.44;;;34.20;26.49
57086;BME280;42964;42.910;23.792;2023-08-21T15:10:09;97657.81;;;34.15;26.59
57086;BME280;42964;42.910;23.792;2023-08-21T15:15:08;97638.91;;;33.97;25.71
57086;BME280;42964;42.910;23.792;2023-08-21T15:20:08;97694.53;;;34.34;26.43
57086;BME280;42964;42.910;23.792;2023-08-21T15:25:08;97685.38;;;34.26;26.79
57086;BME280;42964;42.910;23.792;2023-08-21T15:30:07;97641.03;;;33.93;27.32
57086;BME280;42964;42.910;23.792;2023-08-21T15:35:06;97692.53;;;34.18;27.10
57086;BME280;42964;42.910;23.792;2023-08-21T15:40:07;97685.31;;;34.08;27.38
57086;BME280;42964;42.910;23.792;2023-08-21T15:45:06;97683.34;;;34.11;27.65
57086;BME280;42964;42.910;23.792;2023-08-21T15:50:06;97684.31;;;34.09;27.62
57086;BME280;42964;42.910;23.792;2023-08-21T15:55:05;97667.75;;;33.86;27.22
57086;BME280;42964;42.910;23.792;2023-08-21T16:00:05;97671.44;;;33.48;27.02
57086;BME280;42964;42.910;23.792;2023-08-21T16:05:04;97689.47;;;33.38;28.14
57086;BME280;42964;42.910;23.792;2023-08-21T16:10:04;97685.25;;;33.25;28.06
57086;BME280;42964;42.910;23.792;2023-08-21T16:15:03;97671.13;;;33.04;27.91
57086;BME280;42964;42.910;23.792;2023-08-21T16:20:03;97694.78;;;33.00;27.44
57086;BME280;42964;42.910;23.792;2023-08-21T16:25:04;97699.47;;;32.79;28.40
57086;BME280;42964;42.910;23.792;2023-08-21T16:30:04;97691.66;;;32.56;29.03
57086;BME280;42964;42.910;23.792;2023-08-21T16:35:03;97706.50;;;32.41;29.70
57086;BME280;42964;42.910;23.792;2023-08-21T16:40:03;97678.72;;;32.01;30.72
57086;BME280;42964;42.910;23.792;2023-08-21T16:45:03;97707.25;;;31.93;30.74
57086;BME280;42964;42.910;23.792;2023-08-21T16:50:02;97709.41;;;31.68;31.15
57086;BME280;42964;42.910;23.792;2023-08-21T16:55:01;97675.72;;;31.24;31.97
57086;BME280;42964;42.910;23.792;2023-08-21T17:00:02;97722.75;;;31.28;32.48
57086;BME280;42964;42.910;23.792;2023-08-21T17:05:05;97687.50;;;30.69;33.17
57086;BME280;42964;42.910;23.792;2023-08-21T17:10:05;97738.00;;;30.74;34.30
57086;BME280;42964;42.910;23.792;2023-08-21T17:15:08;97590.53;;;29.35;35.86
57086;BME280;42964;42.910;23.792;2023-08-21T17:20:08;97638.88;;;29.09;36.59
57086;BME280;42964;42.910;23.792;2023-08-21T17:25:08;97762.97;;;29.52;36.65
57086;BME280;42964;42.910;23.792;2023-08-21T17:30:07;97736.38;;;29.15;36.86
57086;BME280;42964;42.910;23.792;2023-08-21T17:35:07;97769.69;;;29.11;37.03
57086;BME280;42964;42.910;23.792;2023-08-21T17:40:06;97700.56;;;28.47;37.11
57086;BME280;42964;42.910;23.792;2023-08-21T17:45:06;97774.81;;;28.66;37.01
57086;BME280;42964;42.910;23.792;2023-08-21T17:50:06;97745.13;;;28.22;37.64
57086;BME280;42964;42.910;23.792;2023-08-21T17:55:06;97780.22;;;28.16;38.74
57086;BME280;42964;42.910;23.792;2023-08-21T18:00:06;97794.31;;;28.05;39.35
57086;BME280;42964;42.910;23.792;2023-08-21T18:05:07;97799.56;;;27.81;40.78
57086;BME280;42964;42.910;23.792;2023-08-21T18:10:06;97786.06;;;27.59;41.14
57086;BME280;42964;42.910;23.792;2023-08-21T18:15:07;97756.88;;;27.05;41.86
57086;BME280;42964;42.910;23.792;2023-08-21T18:20:07;97810.81;;;27.21;42.64
57086;BME280;42964;42.910;23.792;2023-08-21T18:25:06;97818.91;;;27.07;42.63
57086;BME280;42964;42.910;23.792;2023-08-21T18:30:18;97818.25;;;26.76;43.43
57086;BME280;42964;42.910;23.792;2023-08-21T18:35:17;97823.84;;;26.58;43.78
57086;BME280;42964;42.910;23.792;2023-08-21T18:40:16;97703.34;;;25.73;43.87
57086;BME280;42964;42.910;23.792;2023-08-21T18:45:15;97825.41;;;26.34;44.01
57086;BME280;42964;42.910;23.792;2023-08-21T18:50:19;97837.78;;;26.35;44.46
57086;BME280;42964;42.910;23.792;2023-08-21T18:55:20;97836.63;;;26.25;44.46
57086;BME280;42964;42.910;23.792;2023-08-21T19:00:19;97818.41;;;26.04;45.16
57086;BME280;42964;42.910;23.792;2023-08-21T19:05:19;97835.50;;;26.00;45.61
57086;BME280;42964;42.910;23.792;2023-08-21T19:10:19;97848.41;;;25.92;45.79
57086;BME280;42964;42.910;23.792;2023-08-21T19:15:19;97867.97;;;25.77;46.15
57086;BME280;42964;42.910;23.792;2023-08-21T19:20:18;97887.34;;;25.18;50.05
57086;BME280;42964;42.910;23.792;2023-08-21T19:25:17;97878.91;;;24.96;50.28
57086;BME280;42964;42.910;23.792;2023-08-21T19:30:17;97886.03;;;24.95;50.83
57086;BME280;42964;42.910;23.792;2023-08-21T19:35:16;97893.22;;;24.93;50.74
57086;BME280;42964;42.910;23.792;2023-08-21T19:40:15;97890.19;;;24.83;51.14
57086;BME280;42964;42.910;23.792;2023-08-21T19:45:14;97836.53;;;24.46;50.98
57086;BME280;42964;42.910;23.792;2023-08-21T19:50:17;97747.31;;;23.82;51.29
57086;BME280;42964;42.910;23.792;2023-08-21T19:55:17;97885.34;;;24.60;51.41
57086;BME280;42964;42.910;23.792;2023-08-21T20:00:16;97835.94;;;24.25;51.38
57086;BME280;42964;42.910;23.792;2023-08-21T20:05:15;97896.47;;;24.51;51.23
57086;BME280;42964;42.910;23.792;2023-08-21T20:10:14;97889.66;;;24.45;51.39
57086;BME280;42964;42.910;23.792;2023-08-21T20:15:13;97902.00;;;24.46;51.15
57086;BME280;42964;42.910;23.792;2023-08-21T20:20:13;97893.63;;;24.22;52.49
57086;BME280;42964;42.910;23.792;2023-08-21T20:25:12;97882.94;;;24.06;52.86
57086;BME280;42964;42.910;23.792;2023-08-21T20:30:11;97906.44;;;24.12;54.01
57086;BME280;42964;42.910;23.792;2023-08-21T20:35:10;97909.16;;;23.95;54.58
57086;BME280;42964;42.910;23.792;2023-08-21T20:40:10;97913.63;;;23.77;55.35
57086;BME280;42964;42.910;23.792;2023-08-21T20:45:10;97908.41;;;23.75;55.52
57086;BME280;42964;42.910;23.792;2023-08-21T20:50:09;97902.03;;;23.62;55.61
57086;BME280;42964;42.910;23.792;2023-08-21T20:55:09;97917.38;;;23.73;55.43
57086;BME280;42964;42.910;23.792;2023-08-21T21:00:08;97927.19;;;23.71;55.48
57086;BME280;42964;42.910;23.792;2023-08-21T21:05:08;97932.25;;;23.58;56.52
57086;BME280;42964;42.910;23.792;2023-08-21T21:10:08;97915.16;;;23.46;56.39
57086;BME280;42964;42.910;23.792;2023-08-21T21:15:08;97926.63;;;23.47;56.42
57086;BME280;42964;42.910;23.792;2023-08-21T21:20:07;97933.16;;;23.39;56.59
57086;BME280;42964;42.910;23.792;2023-08-21T21:25:07;97926.44;;;23.32;57.52
57086;BME280;42964;42.910;23.792;2023-08-21T21:30:06;97932.75;;;23.30;57.59
57086;BME280;42964;42.910;23.792;2023-08-21T21:35:06;97931.34;;;23.22;58.20
57086;BME280;42964;42.910;23.792;2023-08-21T21:40:06;97931.44;;;23.21;57.79
57086;BME280;42964;42.910;23.792;2023-08-21T21:45:06;97933.22;;;23.20;58.45
57086;BME280;42964;42.910;23.792;2023-08-21T21:50:05;97940.84;;;23.09;59.12
57086;BME280;42964;42.910;23.792;2023-08-21T21:55:05;97935.28;;;22.96;59.81
57086;BME280;42964;42.910;23.792;2023-08-21T22:00:05;97912.53;;;22.54;60.20
57086;BME280;42964;42.910;23.792;2023-08-21T22:05:07;97941.25;;;22.62;60.44
57086;BME280;42964;42.910;23.792;2023-08-21T22:10:07;97941.47;;;22.38;61.32
57086;BME280;42964;42.910;23.792;2023-08-21T22:15:07;97950.72;;;22.30;62.17
57086;BME280;42964;42.910;23.792;2023-08-21T22:20:06;97943.06;;;22.03;63.01
57086;BME280;42964;42.910;23.792;2023-08-21T22:25:07;97931.56;;;21.84;64.27
57086;BME280;42964;42.910;23.792;2023-08-21T22:30:06;97888.19;;;21.48;64.14
57086;BME280;42964;42.910;23.792;2023-08-21T22:35:06;97941.13;;;21.86;63.69
57086;BME280;42964;42.910;23.792;2023-08-21T22:40:06;97937.75;;;21.83;63.87
57086;BME280;42964;42.910;23.792;2023-08-21T22:45:05;97937.75;;;21.83;64.16
57086;BME280;42964;42.910;23.792;2023-08-21T22:50:04;97938.63;;;21.83;64.50
57086;BME280;42964;42.910;23.792;2023-08-21T22:55:04;97928.19;;;21.80;64.70
57086;BME280;42964;42.910;23.792;2023-08-21T23:00:03;97925.50;;;21.82;64.77
57086;BME280;42964;42.910;23.792;2023-08-21T23:05:06;97911.97;;;21.69;65.36
57086;BME280;42964;42.910;23.792;2023-08-21T23:10:05;97876.19;;;21.41;66.35
57086;BME280;42964;42.910;23.792;2023-08-21T23:15:05;97929.38;;;21.73;67.20
57086;BME280;42964;42.910;23.792;2023-08-21T23:20:05;97926.09;;;21.68;67.50
57086;BME280;42964;42.910;23.792;2023-08-21T23:25:08;97912.09;;;21.66;67.78
57086;BME280;42964;42.910;23.792;2023-08-21T23:30:07;97863.78;;;21.23;68.18
57086;BME280;42964;42.910;23.792;2023-08-21T23:35:07;97923.03;;;21.57;68.79
57086;BME280;42964;42.910;23.792;2023-08-21T23:40:07;97922.19;;;21.56;69.25
57086;BME280;42964;42.910;23.792;2023-08-21T23:45:08;97913.63;;;21.51;69.74
57086;BME280;42964;42.910;23.792;2023-08-21T23:50:07;97913.00;;;21.44;70.03
57086;BME280;42964;42.910;23.792;2023-08-21T23:55:07;97914.84;;;21.42;69.77
